createdAt,value
2017-03-18T00:00:45.610Z,9.64
2017-03-18T00:01:54.573Z,9.64
2017-03-18T00:03:03.558Z,9.66
2017-03-18T00:04:12.764Z,9.66
2017-03-18T00:05:21.720Z,9.66
2017-03-18T00:06:30.678Z,9.61
2017-03-18T00:07:39.630Z,9.65
2017-03-18T00:08:48.593Z,9.66
2017-03-18T00:09:57.855Z,9.64
2017-03-18T00:11:06.846Z,9.6
2017-03-18T00:12:15.798Z,9.69
2017-03-18T00:13:24.761Z,9.69
2017-03-18T00:14:33.730Z,9.6
2017-03-18T00:15:42.934Z,9.65
2017-03-18T00:16:51.887Z,9.69
2017-03-18T00:18:00.844Z,9.65
2017-03-18T00:19:09.837Z,9.65
2017-03-18T00:20:18.797Z,9.61
2017-03-18T00:21:27.996Z,9.61
2017-03-18T00:22:36.955Z,9.64
2017-03-18T00:23:45.927Z,9.56
2017-03-18T00:24:54.890Z,9.57
2017-03-18T00:26:03.850Z,9.5
2017-03-18T00:27:13.054Z,9.56
2017-03-18T00:28:22.015Z,9.58
2017-03-18T00:29:30.976Z,9.5
2017-03-18T00:30:40.256Z,9.54
2017-03-18T00:31:49.207Z,9.54
2017-03-18T00:32:58.463Z,9.53
2017-03-18T00:34:07.423Z,9.5
2017-03-18T00:35:16.389Z,9.58
2017-03-18T00:36:25.338Z,9.53
2017-03-18T00:37:34.298Z,9.51
2017-03-18T00:38:43.507Z,9.43
2017-03-18T00:39:52.465Z,9.53
2017-03-18T00:41:01.420Z,9.48
2017-03-18T00:42:10.383Z,9.48
2017-03-18T00:43:19.339Z,9.48
2017-03-18T00:44:28.551Z,9.48
2017-03-18T00:45:37.506Z,9.46
2017-03-18T00:46:46.458Z,9.47
2017-03-18T00:47:55.414Z,9.4
2017-03-18T00:49:04.369Z,9.47
2017-03-18T00:50:13.573Z,9.46
2017-03-18T00:51:22.531Z,9.47
2017-03-18T00:52:31.497Z,9.4
2017-03-18T00:53:40.545Z,9.4
2017-03-18T00:54:49.825Z,9.4
2017-03-18T00:55:59.032Z,9.48
2017-03-18T00:57:08.071Z,9.46
2017-03-18T00:58:17.035Z,9.47
2017-03-18T00:59:25.997Z,9.53
2017-03-18T01:00:34.957Z,9.5
2017-03-18T01:01:44.255Z,9.47
2017-03-18T01:02:53.208Z,9.42
2017-03-18T01:04:02.165Z,9.47
2017-03-18T01:05:11.448Z,9.38
2017-03-18T01:06:20.402Z,9.5
2017-03-18T01:07:29.740Z,9.46
2017-03-18T01:08:38.701Z,9.46
2017-03-18T01:09:47.677Z,9.51
2017-03-18T01:10:56.729Z,9.54
2017-03-18T01:12:05.683Z,9.54
2017-03-18T01:13:15.214Z,9.5
2017-03-18T01:14:24.178Z,9.54
2017-03-18T01:15:33.132Z,9.51
2017-03-18T01:16:42.086Z,9.47
2017-03-18T01:17:51.065Z,9.54
2017-03-18T01:19:00.327Z,9.47
2017-03-18T01:20:09.287Z,9.5
2017-03-18T01:21:18.239Z,9.51
2017-03-18T01:22:27.189Z,9.48
2017-03-18T01:23:36.149Z,9.5
2017-03-18T01:24:45.357Z,9.51
2017-03-18T01:25:54.314Z,9.46
2017-03-18T01:27:03.311Z,9.38
2017-03-18T01:28:12.269Z,9.5
2017-03-18T01:29:21.235Z,9.43
2017-03-18T01:30:30.444Z,9.39
2017-03-18T01:31:39.397Z,9.39
2017-03-18T01:32:48.356Z,9.42
2017-03-18T01:33:57.405Z,9.31
2017-03-18T01:35:06.683Z,9.35
2017-03-18T01:36:15.887Z,9.23
2017-03-18T01:37:24.848Z,9.17
2017-03-18T01:38:33.842Z,9.15
2017-03-18T01:39:42.891Z,9.01
2017-03-18T01:40:51.848Z,9.02
2017-03-18T01:42:01.061Z,8.83
2017-03-18T01:43:10.106Z,8.76
2017-03-18T01:44:19.074Z,8.81
2017-03-18T01:45:28.030Z,8.73
2017-03-18T01:46:37.013Z,8.5
2017-03-18T01:47:46.217Z,8.43
2017-03-18T01:48:55.264Z,8.41
2017-03-18T01:50:04.224Z,8.23
2017-03-18T01:51:13.180Z,8.23
2017-03-18T01:52:22.132Z,8.07
2017-03-18T01:53:31.344Z,8.05
2017-03-18T01:54:40.312Z,7.93
2017-03-18T01:55:49.268Z,7.92
2017-03-18T01:56:58.308Z,7.83
2017-03-18T01:58:07.267Z,7.71
2017-03-18T01:59:16.481Z,7.68
2017-03-18T02:00:25.531Z,7.61
2017-03-18T02:01:34.569Z,7.6
2017-03-18T02:02:43.526Z,7.5
2017-03-18T02:03:52.491Z,7.55
2017-03-18T02:05:01.753Z,7.48
2017-03-18T02:06:10.706Z,7.45
2017-03-18T02:07:19.659Z,7.37
2017-03-18T02:08:28.614Z,7.35
2017-03-18T02:09:37.613Z,7.37
2017-03-18T02:10:46.864Z,7.28
2017-03-18T02:11:55.899Z,7.27
2017-03-18T02:13:04.851Z,7.3
2017-03-18T02:14:13.811Z,7.23
2017-03-18T02:15:22.767Z,7.15
2017-03-18T02:16:32.104Z,7.15
2017-03-18T02:17:41.067Z,7.23
2017-03-18T02:18:50.023Z,7.12
2017-03-18T02:19:58.990Z,7.12
2017-03-18T02:21:08.034Z,6.99
2017-03-18T02:22:17.240Z,7.05
2017-03-18T02:23:26.205Z,6.91
2017-03-18T02:24:35.164Z,6.88
2017-03-18T02:25:44.120Z,6.87
2017-03-18T02:26:53.080Z,6.74
2017-03-18T02:28:02.285Z,6.81
2017-03-18T02:29:11.236Z,6.85
2017-03-18T02:30:20.188Z,6.87
2017-03-18T02:31:29.230Z,6.87
2017-03-18T02:32:38.279Z,6.8
2017-03-18T02:33:47.493Z,6.81
2017-03-18T02:34:56.538Z,6.8
2017-03-18T02:36:05.492Z,6.7
2017-03-18T02:37:14.442Z,6.71
2017-03-18T02:38:23.398Z,6.66
2017-03-18T02:39:32.931Z,6.67
2017-03-18T02:40:41.887Z,6.66
2017-03-18T02:41:50.839Z,6.51
2017-03-18T02:42:59.795Z,6.44
2017-03-18T02:44:08.752Z,6.38
2017-03-18T02:45:17.957Z,6.38
2017-03-18T02:46:26.907Z,6.41
2017-03-18T02:47:35.856Z,6.38
2017-03-18T02:48:44.813Z,6.41
2017-03-18T02:49:53.776Z,6.46
2017-03-18T02:51:03.005Z,6.58
2017-03-18T02:52:12.051Z,6.59
2017-03-18T02:53:21.376Z,6.55
2017-03-18T02:54:30.342Z,6.59
2017-03-18T02:55:39.299Z,6.58
2017-03-18T02:56:48.502Z,6.58
2017-03-18T02:57:57.463Z,6.46
2017-03-18T02:59:06.420Z,6.38
2017-03-18T03:00:15.372Z,6.48
2017-03-18T03:01:24.320Z,6.46
2017-03-18T03:02:33.521Z,6.51
2017-03-18T03:03:42.506Z,6.28
2017-03-18T03:04:51.465Z,6.28
2017-03-18T03:06:00.420Z,6.49
2017-03-18T03:07:09.405Z,6.41
2017-03-18T03:08:18.607Z,6.22
2017-03-18T03:09:27.569Z,6.21
2017-03-18T03:10:36.521Z,6.28
2017-03-18T03:11:45.473Z,6.17
2017-03-18T03:12:54.443Z,6.17
2017-03-18T03:14:03.647Z,6.18
2017-03-18T03:15:12.609Z,6.15
2017-03-18T03:16:21.560Z,6.18
2017-03-18T03:17:30.591Z,6.15
2017-03-18T03:18:39.541Z,6.01
2017-03-18T03:19:49.074Z,6.08
2017-03-18T03:20:58.038Z,6.03
2017-03-18T03:22:06.987Z,5.91
2017-03-18T03:23:15.950Z,5.89
2017-03-18T03:24:24.915Z,5.89
2017-03-18T03:25:34.152Z,5.86
2017-03-18T03:26:43.112Z,5.9
2017-03-18T03:27:52.071Z,5.97
2017-03-18T03:29:01.035Z,5.94
2017-03-18T03:30:10.345Z,5.94
2017-03-18T03:31:19.546Z,6.01
2017-03-18T03:32:28.500Z,5.99
2017-03-18T03:33:37.454Z,5.93
2017-03-18T03:34:46.431Z,6.01
2017-03-18T03:35:55.388Z,5.94
2017-03-18T03:37:04.666Z,5.96
2017-03-18T03:38:13.622Z,5.93
2017-03-18T03:39:22.590Z,5.91
2017-03-18T03:40:31.555Z,5.99
2017-03-18T03:41:40.506Z,5.89
2017-03-18T03:42:49.708Z,5.91
2017-03-18T03:43:58.669Z,5.89
2017-03-18T03:45:07.621Z,5.82
2017-03-18T03:46:16.575Z,5.83
2017-03-18T03:47:25.648Z,5.82
2017-03-18T03:48:34.853Z,5.78
2017-03-18T03:49:43.810Z,5.81
2017-03-18T03:50:52.771Z,5.82
2017-03-18T03:52:01.750Z,5.79
2017-03-18T03:53:10.702Z,5.85
2017-03-18T03:54:19.908Z,5.81
2017-03-18T03:55:29.197Z,5.79
2017-03-18T03:56:38.149Z,5.86
2017-03-18T03:57:47.107Z,5.83
2017-03-18T03:58:56.067Z,5.82
2017-03-18T04:00:05.329Z,5.83
2017-03-18T04:01:14.280Z,5.74
2017-03-18T04:02:23.323Z,5.71
2017-03-18T04:03:32.287Z,5.63
2017-03-18T04:04:41.244Z,5.65
2017-03-18T04:05:50.447Z,5.49
2017-03-18T04:06:59.401Z,5.54
2017-03-18T04:08:08.359Z,5.58
2017-03-18T04:09:17.640Z,5.51
2017-03-18T04:10:26.591Z,5.65
2017-03-18T04:11:35.872Z,5.6
2017-03-18T04:12:44.829Z,5.74
2017-03-18T04:13:53.788Z,5.68
2017-03-18T04:15:02.770Z,5.63
2017-03-18T04:16:11.727Z,5.63
2017-03-18T04:17:20.927Z,5.74
2017-03-18T04:18:29.879Z,5.75
2017-03-18T04:19:38.842Z,5.68
2017-03-18T04:20:47.787Z,5.63
2017-03-18T04:21:56.734Z,5.68
2017-03-18T04:23:05.937Z,5.64
2017-03-18T04:24:14.896Z,5.71
2017-03-18T04:25:23.849Z,5.68
2017-03-18T04:26:32.884Z,5.74
2017-03-18T04:27:41.834Z,5.68
2017-03-18T04:28:51.093Z,5.67
2017-03-18T04:30:00.048Z,5.64
2017-03-18T04:31:08.995Z,5.71
2017-03-18T04:32:17.950Z,5.63
2017-03-18T04:33:26.917Z,5.54
2017-03-18T04:34:36.125Z,5.58
2017-03-18T04:35:45.085Z,5.61
2017-03-18T04:36:54.038Z,5.54
2017-03-18T04:38:03.000Z,5.63
2017-03-18T04:39:11.957Z,5.53
2017-03-18T04:40:21.212Z,5.58
2017-03-18T04:41:30.247Z,5.51
2017-03-18T04:42:39.229Z,5.61
2017-03-18T04:43:48.191Z,5.51
2017-03-18T04:44:57.147Z,5.53
2017-03-18T04:46:06.410Z,5.6
2017-03-18T04:47:15.362Z,5.54
2017-03-18T04:48:24.402Z,5.6
2017-03-18T04:49:33.351Z,5.54
2017-03-18T04:50:42.307Z,5.45
2017-03-18T04:51:51.508Z,5.57
2017-03-18T04:53:00.455Z,5.58
2017-03-18T04:54:09.585Z,5.53
2017-03-18T04:55:18.540Z,5.58
2017-03-18T04:56:27.579Z,5.57
2017-03-18T04:57:36.781Z,5.53
2017-03-18T04:58:45.745Z,5.49
2017-03-18T04:59:54.711Z,5.61
2017-03-18T05:01:03.663Z,5.53
2017-03-18T05:02:12.610Z,5.61
2017-03-18T05:03:21.907Z,5.64
2017-03-18T05:04:30.857Z,5.71
2017-03-18T05:05:39.809Z,5.54
2017-03-18T05:06:48.758Z,5.56
2017-03-18T05:07:57.714Z,5.53
2017-03-18T05:09:06.911Z,5.58
2017-03-18T05:10:15.859Z,5.56
2017-03-18T05:11:24.842Z,5.54
2017-03-18T05:12:33.803Z,5.45
2017-03-18T05:13:42.765Z,5.43
2017-03-18T05:14:52.020Z,5.43
2017-03-18T05:16:00.973Z,5.45
2017-03-18T05:17:09.927Z,5.42
2017-03-18T05:18:18.885Z,5.48
2017-03-18T05:19:27.846Z,5.53
2017-03-18T05:20:37.091Z,5.53
2017-03-18T05:21:46.044Z,5.49
2017-03-18T05:22:55.000Z,5.58
2017-03-18T05:24:03.960Z,5.63
2017-03-18T05:25:12.916Z,5.71
2017-03-18T05:26:22.132Z,5.68
2017-03-18T05:27:31.403Z,5.63
2017-03-18T05:28:40.359Z,5.67
2017-03-18T05:29:49.312Z,5.68
2017-03-18T05:30:58.281Z,5.68
2017-03-18T05:32:07.532Z,5.63
2017-03-18T05:33:16.482Z,5.65
2017-03-18T05:34:25.438Z,5.71
2017-03-18T05:35:34.395Z,5.71
2017-03-18T05:36:43.342Z,5.63
2017-03-18T05:37:52.636Z,5.68
2017-03-18T05:39:01.599Z,5.68
2017-03-18T05:40:10.560Z,5.63
2017-03-18T05:41:19.517Z,5.58
2017-03-18T05:42:28.558Z,5.65
2017-03-18T05:43:37.773Z,5.67
2017-03-18T05:44:46.731Z,5.71
2017-03-18T05:45:55.689Z,5.68
2017-03-18T05:47:04.642Z,5.74
2017-03-18T05:48:13.593Z,5.72
2017-03-18T05:49:22.801Z,5.68
2017-03-18T05:50:31.756Z,5.78
2017-03-18T05:51:41.028Z,5.71
2017-03-18T05:52:49.984Z,5.71
2017-03-18T05:53:58.946Z,5.68
2017-03-18T05:55:08.197Z,5.65
2017-03-18T05:56:17.147Z,5.68
2017-03-18T05:57:26.096Z,5.65
2017-03-18T05:58:35.051Z,5.64
2017-03-18T05:59:44.012Z,5.65
2017-03-18T06:00:53.265Z,5.64
2017-03-18T06:02:02.220Z,5.78
2017-03-18T06:03:11.182Z,5.82
2017-03-18T06:04:20.140Z,5.79
2017-03-18T06:05:29.091Z,5.79
2017-03-18T06:06:38.293Z,5.71
2017-03-18T06:07:47.253Z,5.72
2017-03-18T06:08:56.338Z,5.74
2017-03-18T06:10:05.296Z,5.82
2017-03-18T06:11:14.250Z,5.89
2017-03-18T06:12:23.781Z,5.86
2017-03-18T06:13:32.774Z,5.79
2017-03-18T06:14:41.817Z,5.86
2017-03-18T06:15:50.775Z,5.89
2017-03-18T06:16:59.725Z,5.86
2017-03-18T06:18:08.975Z,5.89
2017-03-18T06:19:17.932Z,5.86
2017-03-18T06:20:26.976Z,5.94
2017-03-18T06:21:35.927Z,6
2017-03-18T06:22:44.883Z,5.86
2017-03-18T06:23:54.139Z,5.96
2017-03-18T06:25:03.097Z,6.01
2017-03-18T06:26:12.053Z,5.9
2017-03-18T06:27:21.091Z,5.94
2017-03-18T06:28:30.052Z,5.89
2017-03-18T06:29:39.311Z,5.86
2017-03-18T06:30:48.263Z,5.93
2017-03-18T06:31:57.301Z,5.96
2017-03-18T06:33:06.281Z,5.86
2017-03-18T06:34:15.244Z,5.93
2017-03-18T06:35:24.460Z,5.94
2017-03-18T06:36:33.411Z,5.94
2017-03-18T06:37:42.365Z,6
2017-03-18T06:38:51.326Z,6.01
2017-03-18T06:40:00.406Z,6
2017-03-18T06:41:09.659Z,6.01
2017-03-18T06:42:18.607Z,6.01
2017-03-18T06:43:27.563Z,6.03
2017-03-18T06:44:36.517Z,6.14
2017-03-18T06:45:45.467Z,6.06
2017-03-18T06:46:54.668Z,6.03
2017-03-18T06:48:03.625Z,6.06
2017-03-18T06:49:12.671Z,6.06
2017-03-18T06:50:21.622Z,6.04
2017-03-18T06:51:30.571Z,6.17
2017-03-18T06:52:39.772Z,6.19
2017-03-18T06:53:48.735Z,6.22
2017-03-18T06:54:57.696Z,6.19
2017-03-18T06:56:06.652Z,6.31
2017-03-18T06:57:15.607Z,6.17
2017-03-18T06:58:24.863Z,6.19
2017-03-18T06:59:33.813Z,6.25
2017-03-18T07:00:42.801Z,6.3
2017-03-18T07:01:51.752Z,6.3
2017-03-18T07:03:00.789Z,6.36
2017-03-18T07:04:10.043Z,6.41
2017-03-18T07:05:18.997Z,6.34
2017-03-18T07:06:27.943Z,6.36
2017-03-18T07:07:36.897Z,6.43
2017-03-18T07:08:45.853Z,6.33
2017-03-18T07:09:55.108Z,6.34
2017-03-18T07:11:04.062Z,6.44
2017-03-18T07:12:13.099Z,6.49
2017-03-18T07:13:22.055Z,6.46
2017-03-18T07:14:31.011Z,6.43
2017-03-18T07:15:40.264Z,6.49
2017-03-18T07:16:49.232Z,6.44
2017-03-18T07:17:58.219Z,6.52
2017-03-18T07:19:07.257Z,6.46
2017-03-18T07:20:16.542Z,6.52
2017-03-18T07:21:25.793Z,6.52
2017-03-18T07:22:34.742Z,6.43
2017-03-18T07:23:43.704Z,6.41
2017-03-18T07:24:52.657Z,6.48
2017-03-18T07:26:01.701Z,6.43
2017-03-18T07:27:10.950Z,6.46
2017-03-18T07:28:19.903Z,6.49
2017-03-18T07:29:28.861Z,6.46
2017-03-18T07:30:37.832Z,6.46
2017-03-18T07:31:46.782Z,6.48
2017-03-18T07:32:55.993Z,6.46
2017-03-18T07:34:04.949Z,6.41
2017-03-18T07:35:13.904Z,6.41
2017-03-18T07:36:22.866Z,6.43
2017-03-18T07:37:31.819Z,6.51
2017-03-18T07:38:41.022Z,6.52
2017-03-18T07:39:50.066Z,6.62
2017-03-18T07:40:59.017Z,6.61
2017-03-18T07:42:08.086Z,6.62
2017-03-18T07:43:17.047Z,6.58
2017-03-18T07:44:26.303Z,6.62
2017-03-18T07:45:35.263Z,6.59
2017-03-18T07:46:44.212Z,6.67
2017-03-18T07:47:53.194Z,6.69
2017-03-18T07:49:02.156Z,6.67
2017-03-18T07:50:11.414Z,6.69
2017-03-18T07:51:20.366Z,6.66
2017-03-18T07:52:29.411Z,6.58
2017-03-18T07:53:38.367Z,6.64
2017-03-18T07:54:47.325Z,6.67
2017-03-18T07:55:56.583Z,6.71
2017-03-18T07:57:05.570Z,6.79
2017-03-18T07:58:14.538Z,6.76
2017-03-18T07:59:23.499Z,6.88
2017-03-18T08:00:32.489Z,6.95
2017-03-18T08:01:41.740Z,6.91
2017-03-18T08:02:50.775Z,6.95
2017-03-18T08:04:00.065Z,7.02
2017-03-18T08:05:09.022Z,6.98
2017-03-18T08:06:17.978Z,7.03
2017-03-18T08:07:27.257Z,7.05
2017-03-18T08:08:36.260Z,7.05
2017-03-18T08:09:45.214Z,7.07
2017-03-18T08:10:54.162Z,7.1
2017-03-18T08:12:03.114Z,7.1
2017-03-18T08:13:12.324Z,7.1
2017-03-18T08:14:21.296Z,7.15
2017-03-18T08:15:30.253Z,7.23
2017-03-18T08:16:39.216Z,7.21
2017-03-18T08:17:48.176Z,7.17
2017-03-18T08:18:57.433Z,7.2
2017-03-18T08:20:06.387Z,7.15
2017-03-18T08:21:15.387Z,7.2
2017-03-18T08:22:24.337Z,7.27
2017-03-18T08:23:33.295Z,7.2
2017-03-18T08:24:42.499Z,7.27
2017-03-18T08:25:51.456Z,7.31
2017-03-18T08:27:00.413Z,7.3
2017-03-18T08:28:09.368Z,7.3
2017-03-18T08:29:18.329Z,7.25
2017-03-18T08:30:27.533Z,7.34
2017-03-18T08:31:36.488Z,7.4
2017-03-18T08:32:45.448Z,7.37
2017-03-18T08:33:54.413Z,7.45
2017-03-18T08:35:03.374Z,7.5
2017-03-18T08:36:12.629Z,7.5
2017-03-18T08:37:21.577Z,7.53
2017-03-18T08:38:30.616Z,7.49
2017-03-18T08:39:39.895Z,7.58
2017-03-18T08:40:48.846Z,7.53
2017-03-18T08:41:58.428Z,7.67
2017-03-18T08:43:07.386Z,7.67
2017-03-18T08:44:16.342Z,7.69
2017-03-18T08:45:25.307Z,7.69
2017-03-18T08:46:34.589Z,7.68
2017-03-18T08:47:43.848Z,7.79
2017-03-18T08:48:52.805Z,7.75
2017-03-18T08:50:01.757Z,7.82
2017-03-18T08:51:10.712Z,7.82
2017-03-18T08:52:19.667Z,7.83
2017-03-18T08:53:28.875Z,7.93
2017-03-18T08:54:37.827Z,7.82
2017-03-18T08:55:46.784Z,7.9
2017-03-18T08:56:55.732Z,7.9
2017-03-18T08:58:04.689Z,7.92
2017-03-18T08:59:13.953Z,7.95
2017-03-18T09:00:22.909Z,7.97
2017-03-18T09:01:31.859Z,8
2017-03-18T09:02:40.823Z,7.95
2017-03-18T09:03:49.784Z,7.95
2017-03-18T09:04:59.049Z,7.93
2017-03-18T09:06:08.010Z,8.04
2017-03-18T09:07:16.973Z,8
2017-03-18T09:08:25.923Z,8.02
2017-03-18T09:09:34.973Z,8
2017-03-18T09:10:44.256Z,8.08
2017-03-18T09:11:53.239Z,7.97
2017-03-18T09:13:02.202Z,8.07
2017-03-18T09:14:11.193Z,8.08
2017-03-18T09:15:20.150Z,8.05
2017-03-18T09:16:29.427Z,8.08
2017-03-18T09:17:38.377Z,8.19
2017-03-18T09:18:47.422Z,8.25
2017-03-18T09:19:56.376Z,8.26
2017-03-18T09:21:05.331Z,8.25
2017-03-18T09:22:14.535Z,8.38
2017-03-18T09:23:23.511Z,8.48
2017-03-18T09:24:32.468Z,8.55
2017-03-18T09:25:41.425Z,8.71
2017-03-18T09:26:50.376Z,8.65
2017-03-18T09:27:59.670Z,8.7
2017-03-18T09:29:08.625Z,8.7
2017-03-18T09:30:17.586Z,8.74
2017-03-18T09:31:26.573Z,8.83
2017-03-18T09:32:35.530Z,8.81
2017-03-18T09:33:44.742Z,8.84
2017-03-18T09:34:53.705Z,8.81
2017-03-18T09:36:02.983Z,8.8
2017-03-18T09:37:11.934Z,8.86
2017-03-18T09:38:20.887Z,8.87
2017-03-18T09:39:30.096Z,8.77
2017-03-18T09:40:39.052Z,8.76
2017-03-18T09:41:48.037Z,8.74
2017-03-18T09:42:57.013Z,8.65
2017-03-18T09:44:05.973Z,8.74
2017-03-18T09:45:15.231Z,8.79
2017-03-18T09:46:24.183Z,8.81
2017-03-18T09:47:33.137Z,8.77
2017-03-18T09:48:42.103Z,8.84
2017-03-18T09:49:51.144Z,8.87
2017-03-18T09:51:00.411Z,8.81
2017-03-18T09:52:09.373Z,8.83
2017-03-18T09:53:18.331Z,8.92
2017-03-18T09:54:27.620Z,8.98
2017-03-18T09:55:36.574Z,8.92
2017-03-18T09:56:45.877Z,8.86
2017-03-18T09:57:54.837Z,8.87
2017-03-18T09:59:03.799Z,8.84
2017-03-18T10:00:12.753Z,8.83
2017-03-18T10:01:21.711Z,8.87
2017-03-18T10:02:30.915Z,8.84
2017-03-18T10:03:39.872Z,8.96
2017-03-18T10:04:48.828Z,9.05
2017-03-18T10:05:57.787Z,9.04
2017-03-18T10:07:06.832Z,9.08
2017-03-18T10:08:16.187Z,9.15
2017-03-18T10:09:25.151Z,9.11
2017-03-18T10:10:34.106Z,9.14
2017-03-18T10:11:43.058Z,9.18
2017-03-18T10:12:52.014Z,9.28
2017-03-18T10:14:01.276Z,9.38
2017-03-18T10:15:10.239Z,9.42
2017-03-18T10:16:19.187Z,9.46
2017-03-18T10:17:28.148Z,9.47
2017-03-18T10:18:37.103Z,9.5
2017-03-18T10:19:46.355Z,9.46
2017-03-18T10:20:55.308Z,9.51
2017-03-18T10:22:04.258Z,9.43
2017-03-18T10:23:13.222Z,9.47
2017-03-18T10:24:22.176Z,9.5
2017-03-18T10:25:31.429Z,9.43
2017-03-18T10:26:40.473Z,9.43
2017-03-18T10:27:49.518Z,9.38
2017-03-18T10:28:58.480Z,9.29
2017-03-18T10:30:07.441Z,9.38
2017-03-18T10:31:16.699Z,9.31
2017-03-18T10:32:25.654Z,9.32
2017-03-18T10:33:34.615Z,9.36
2017-03-18T10:34:43.570Z,9.33
2017-03-18T10:35:52.522Z,9.4
2017-03-18T10:37:01.773Z,9.48
2017-03-18T10:38:10.734Z,9.46
2017-03-18T10:39:19.698Z,9.51
2017-03-18T10:40:28.656Z,9.43
2017-03-18T10:41:37.612Z,9.48
2017-03-18T10:42:46.870Z,9.46
2017-03-18T10:43:55.834Z,9.65
2017-03-18T10:45:04.788Z,9.64
2017-03-18T10:46:13.741Z,9.61
2017-03-18T10:47:22.701Z,9.66
2017-03-18T10:48:31.956Z,9.68
2017-03-18T10:49:40.916Z,9.65
2017-03-18T10:50:49.873Z,9.79
2017-03-18T10:51:58.835Z,9.76
2017-03-18T10:53:07.797Z,9.78
2017-03-18T10:54:17.055Z,9.75
2017-03-18T10:55:26.014Z,9.89
2017-03-18T10:56:34.966Z,9.91
2017-03-18T10:57:44.008Z,9.87
2017-03-18T10:58:52.967Z,9.78
2017-03-18T11:00:02.231Z,9.84
2017-03-18T11:01:11.185Z,9.79
2017-03-18T11:02:20.145Z,9.84
2017-03-18T11:03:29.109Z,9.78
2017-03-18T11:04:38.069Z,9.78
2017-03-18T11:05:47.273Z,9.72
2017-03-18T11:06:56.220Z,9.64
2017-03-18T11:08:05.267Z,9.6
2017-03-18T11:09:14.224Z,9.53
2017-03-18T11:10:23.181Z,9.53
2017-03-18T11:11:32.446Z,9.54
2017-03-18T11:12:41.492Z,9.5
2017-03-18T11:13:50.456Z,9.57
2017-03-18T11:14:59.420Z,9.57
2017-03-18T11:16:08.381Z,9.56
2017-03-18T11:17:17.650Z,9.6
2017-03-18T11:18:26.642Z,9.66
2017-03-18T11:19:35.602Z,9.76
2017-03-18T11:20:44.562Z,9.86
2017-03-18T11:21:53.516Z,9.87
2017-03-18T11:23:02.773Z,9.86
2017-03-18T11:24:11.734Z,9.89
2017-03-18T11:25:20.697Z,9.76
2017-03-18T11:26:29.740Z,9.76
2017-03-18T11:27:38.694Z,9.78
2017-03-18T11:28:47.957Z,9.76
2017-03-18T11:29:56.924Z,9.76
2017-03-18T11:31:05.885Z,9.78
2017-03-18T11:32:14.843Z,9.75
2017-03-18T11:33:23.803Z,9.66
2017-03-18T11:34:33.009Z,9.6
2017-03-18T11:35:42.063Z,9.53
2017-03-18T11:36:51.024Z,9.46
2017-03-18T11:37:59.987Z,9.46
2017-03-18T11:39:08.946Z,9.38
2017-03-18T11:40:18.159Z,9.31
2017-03-18T11:41:27.115Z,9.29
2017-03-18T11:42:36.069Z,9.17
2017-03-18T11:43:45.024Z,9.24
2017-03-18T11:44:53.984Z,9.14
2017-03-18T11:46:03.190Z,9.23
2017-03-18T11:47:12.152Z,9.2
2017-03-18T11:48:21.147Z,9.13
2017-03-18T11:49:30.112Z,9.1
2017-03-18T11:50:39.080Z,9.11
2017-03-18T11:51:48.285Z,9.04
2017-03-18T11:52:57.241Z,9.08
2017-03-18T11:54:06.211Z,8.99
2017-03-18T11:55:15.177Z,8.89
2017-03-18T11:56:24.127Z,8.91
2017-03-18T11:57:33.398Z,8.94
2017-03-18T11:58:42.354Z,8.91
2017-03-18T11:59:51.313Z,8.89
2017-03-18T12:01:00.277Z,9.08
2017-03-18T12:02:09.227Z,9.13
2017-03-18T12:03:18.483Z,9.17
2017-03-18T12:04:27.451Z,9.2
2017-03-18T12:05:36.436Z,9.39
2017-03-18T12:06:45.480Z,9.4
2017-03-18T12:07:54.442Z,9.4
2017-03-18T12:09:03.651Z,9.31
2017-03-18T12:10:12.607Z,9.32
2017-03-18T12:11:21.562Z,9.28
2017-03-18T12:12:30.514Z,9.38
2017-03-18T12:13:39.472Z,9.32
2017-03-18T12:14:48.729Z,9.35
2017-03-18T12:15:57.688Z,9.36
2017-03-18T12:17:06.641Z,9.33
2017-03-18T12:18:15.609Z,9.32
2017-03-18T12:19:24.593Z,9.33
2017-03-18T12:20:33.850Z,9.36
2017-03-18T12:21:43.121Z,9.39
2017-03-18T12:22:52.084Z,9.48
2017-03-18T12:24:01.047Z,9.53
2017-03-18T12:25:10.324Z,9.43
2017-03-18T12:26:19.672Z,9.51
2017-03-18T12:27:28.953Z,9.51
2017-03-18T12:28:37.991Z,9.46
2017-03-18T12:29:47.282Z,9.51
2017-03-18T12:30:56.255Z,9.56
2017-03-18T12:32:05.601Z,9.54
2017-03-18T12:33:14.563Z,9.56
2017-03-18T12:34:23.526Z,9.68
2017-03-18T12:35:32.486Z,9.76
2017-03-18T12:36:41.445Z,9.69
2017-03-18T12:37:50.700Z,9.84
2017-03-18T12:38:59.655Z,9.89
2017-03-18T12:40:08.610Z,9.96
2017-03-18T12:41:17.583Z,9.99
2017-03-18T12:42:26.624Z,10.02
2017-03-18T12:43:35.882Z,9.93
2017-03-18T12:44:44.849Z,9.89
2017-03-18T12:45:53.805Z,9.9
2017-03-18T12:47:02.763Z,9.97
2017-03-18T12:48:11.729Z,10.02
2017-03-18T12:49:20.997Z,9.96
2017-03-18T12:50:30.045Z,9.99
2017-03-18T12:51:39.000Z,10.05
2017-03-18T12:52:48.040Z,10.04
2017-03-18T12:53:57.002Z,9.96
2017-03-18T12:55:06.588Z,9.97
2017-03-18T12:56:15.542Z,9.87
2017-03-18T12:57:24.586Z,9.83
2017-03-18T12:58:33.540Z,9.84
2017-03-18T12:59:42.496Z,9.91
2017-03-18T13:00:51.835Z,9.87
2017-03-18T13:02:00.790Z,9.81
2017-03-18T13:03:10.072Z,9.76
2017-03-18T13:04:19.035Z,9.65
2017-03-18T13:05:27.990Z,9.68
2017-03-18T13:06:37.242Z,9.64
2017-03-18T13:07:46.201Z,9.72
2017-03-18T13:08:55.165Z,9.74
2017-03-18T13:10:04.127Z,9.74
2017-03-18T13:11:13.084Z,9.83
2017-03-18T13:12:22.341Z,9.86
2017-03-18T13:13:31.297Z,9.81
2017-03-18T13:14:40.260Z,9.75
2017-03-18T13:15:49.215Z,9.61
2017-03-18T13:16:58.168Z,9.61
2017-03-18T13:18:07.550Z,9.75
2017-03-18T13:19:16.516Z,9.71
2017-03-18T13:20:25.475Z,9.72
2017-03-18T13:21:34.426Z,9.69
2017-03-18T13:22:43.378Z,9.66
2017-03-18T13:23:52.727Z,9.68
2017-03-18T13:25:01.691Z,9.64
2017-03-18T13:26:10.643Z,9.65
2017-03-18T13:27:19.629Z,9.81
2017-03-18T13:28:28.580Z,9.79
2017-03-18T13:29:37.870Z,9.87
2017-03-18T13:30:46.824Z,9.89
2017-03-18T13:31:55.784Z,9.94
2017-03-18T13:33:04.747Z,9.89
2017-03-18T13:34:13.724Z,9.99
2017-03-18T13:35:22.945Z,10.04
2017-03-18T13:36:31.896Z,9.97
2017-03-18T13:37:40.859Z,10.07
2017-03-18T13:38:49.817Z,10.02
2017-03-18T13:39:58.777Z,9.89
2017-03-18T13:41:07.994Z,9.81
2017-03-18T13:42:16.948Z,9.75
2017-03-18T13:43:25.910Z,9.76
2017-03-18T13:44:34.875Z,9.78
2017-03-18T13:45:43.836Z,9.81
2017-03-18T13:46:53.088Z,9.79
2017-03-18T13:48:02.136Z,9.61
2017-03-18T13:49:11.416Z,9.65
2017-03-18T13:50:20.380Z,9.6
2017-03-18T13:51:29.340Z,9.53
2017-03-18T13:52:38.601Z,9.47
2017-03-18T13:53:47.879Z,9.43
2017-03-18T13:54:56.846Z,9.43
2017-03-18T13:56:05.807Z,9.5
2017-03-18T13:57:14.765Z,9.53
2017-03-18T13:58:24.028Z,9.47
2017-03-18T13:59:33.311Z,9.48
2017-03-18T14:00:42.266Z,9.54
2017-03-18T14:01:51.222Z,9.51
2017-03-18T14:03:00.189Z,9.53
2017-03-18T14:04:09.446Z,9.54
2017-03-18T14:05:18.408Z,9.54
2017-03-18T14:06:27.364Z,9.5
2017-03-18T14:07:36.325Z,9.43
2017-03-18T14:08:45.293Z,9.47
2017-03-18T14:09:54.555Z,9.46
2017-03-18T14:11:03.522Z,9.39
2017-03-18T14:12:12.483Z,9.53
2017-03-18T14:13:21.437Z,9.71
2017-03-18T14:14:30.407Z,9.78
2017-03-18T14:15:39.662Z,9.75
2017-03-18T14:16:48.620Z,9.83
2017-03-18T14:17:57.661Z,9.89
2017-03-18T14:19:06.620Z,9.84
2017-03-18T14:20:15.580Z,9.86
2017-03-18T14:21:24.833Z,9.81
2017-03-18T14:22:33.787Z,9.9
2017-03-18T14:23:42.753Z,9.9
2017-03-18T14:24:51.713Z,9.89
2017-03-18T14:26:00.677Z,9.91
2017-03-18T14:27:09.886Z,9.78
2017-03-18T14:28:18.851Z,9.87
2017-03-18T14:29:27.815Z,9.84
2017-03-18T14:30:36.772Z,9.79
2017-03-18T14:31:45.735Z,9.74
2017-03-18T14:32:55.077Z,9.6
2017-03-18T14:34:04.442Z,9.64
2017-03-18T14:35:13.405Z,9.5
2017-03-18T14:36:22.358Z,9.53
2017-03-18T14:37:31.319Z,9.54
2017-03-18T14:38:40.535Z,9.51
2017-03-18T14:39:49.501Z,9.39
2017-03-18T14:40:58.464Z,9.48
2017-03-18T14:42:07.423Z,9.5
2017-03-18T14:43:16.381Z,9.53
2017-03-18T14:44:25.640Z,9.46
2017-03-18T14:45:34.600Z,9.48
2017-03-18T14:46:43.641Z,9.46
2017-03-18T14:47:52.601Z,9.46
2017-03-18T14:49:01.562Z,9.47
2017-03-18T14:50:10.836Z,9.47
2017-03-18T14:51:19.793Z,9.48
2017-03-18T14:52:29.076Z,9.47
2017-03-18T14:53:38.032Z,9.46
2017-03-18T14:54:47.078Z,9.54
2017-03-18T14:55:56.332Z,9.56
2017-03-18T14:57:05.289Z,9.54
2017-03-18T14:58:14.251Z,9.51
2017-03-18T14:59:23.217Z,9.5
2017-03-18T15:00:32.176Z,9.5
2017-03-18T15:01:41.379Z,9.58
2017-03-18T15:02:50.339Z,9.54
2017-03-18T15:03:59.310Z,9.64
2017-03-18T15:05:08.277Z,9.65
2017-03-18T15:06:17.234Z,9.56
2017-03-18T15:07:26.818Z,9.48
2017-03-18T15:08:35.857Z,9.48
2017-03-18T15:09:44.816Z,9.5
2017-03-18T15:10:53.771Z,9.43
2017-03-18T15:12:02.762Z,9.53
2017-03-18T15:13:12.105Z,9.42
2017-03-18T15:14:21.069Z,9.5
2017-03-18T15:15:30.118Z,9.5
2017-03-18T15:16:39.078Z,9.58
2017-03-18T15:17:48.077Z,9.48
2017-03-18T15:18:57.341Z,9.47
2017-03-18T15:20:06.299Z,9.5
2017-03-18T15:21:15.257Z,9.46
2017-03-18T15:22:24.212Z,9.46